createdAt,value
2017-09-03T00:03:51.265Z,0
2017-09-03T00:08:55.995Z,0
2017-09-03T00:14:01.061Z,0
2017-09-03T00:19:06.799Z,0
2017-09-03T00:24:12.205Z,0
2017-09-03T00:29:17.272Z,0
2017-09-03T00:34:22.341Z,0
2017-09-03T00:39:28.074Z,0
2017-09-03T00:44:33.143Z,0
2017-09-03T00:49:37.880Z,0
2017-09-03T00:54:43.281Z,0
2017-09-03T00:59:49.020Z,0
2017-09-03T01:04:54.426Z,0
2017-09-03T01:09:59.823Z,0
2017-09-03T01:15:05.225Z,0
2017-09-03T01:20:10.629Z,0
2017-09-03T01:25:15.705Z,0
2017-09-03T01:30:20.789Z,0
2017-09-03T01:35:25.861Z,0
2017-09-03T01:40:31.258Z,0
2017-09-03T01:45:35.991Z,0
2017-09-03T01:50:41.392Z,0
2017-09-03T01:55:46.796Z,0
2017-09-03T02:00:51.202Z,0
2017-09-03T02:05:56.266Z,0
2017-09-03T02:11:01.335Z,0
2017-09-03T02:16:07.067Z,0
2017-09-03T02:21:11.465Z,0
2017-09-03T02:26:16.868Z,0
2017-09-03T02:31:21.603Z,0
2017-09-03T02:36:27.001Z,0
2017-09-03T02:41:32.404Z,0
2017-09-03T02:46:38.139Z,0
2017-09-03T02:51:43.546Z,0
2017-09-03T02:56:48.272Z,0
2017-09-03T03:01:53.669Z,0
2017-09-03T03:06:59.401Z,0
2017-09-03T03:12:05.137Z,0
2017-09-03T03:17:10.204Z,0
2017-09-03T03:22:14.938Z,0
2017-09-03T03:27:20.332Z,0
2017-09-03T03:32:26.074Z,0
2017-09-03T03:37:31.806Z,0
2017-09-03T03:42:37.208Z,0
2017-09-03T03:47:42.273Z,0
2017-09-03T03:52:48.010Z,0
2017-09-03T03:57:53.747Z,0
2017-09-03T04:02:59.179Z,1
2017-09-03T04:08:04.601Z,2
2017-09-03T04:13:10.005Z,2
2017-09-03T04:18:14.725Z,5
2017-09-03T04:23:19.799Z,10
2017-09-03T04:28:25.535Z,14
2017-09-03T04:33:30.268Z,22
2017-09-03T04:38:36.006Z,37
2017-09-03T04:43:41.428Z,55
2017-09-03T04:48:46.827Z,76
2017-09-03T04:53:52.244Z,96
2017-09-03T04:58:57.650Z,129
2017-09-03T05:04:03.084Z,155
2017-09-03T05:09:09.172Z,197
2017-09-03T05:14:14.571Z,230
2017-09-03T05:19:19.639Z,295
2017-09-03T05:24:24.044Z,334
2017-09-03T05:29:29.781Z,366
2017-09-03T05:34:34.515Z,500
2017-09-03T05:39:39.249Z,517
2017-09-03T05:44:44.648Z,649
2017-09-03T05:49:50.386Z,831
2017-09-03T05:54:55.790Z,959
2017-09-03T06:00:00.542Z,1075
2017-09-03T06:05:06.668Z,1195
2017-09-03T06:10:12.451Z,1330
2017-09-03T06:15:17.856Z,1480
2017-09-03T06:20:23.269Z,1647
2017-09-03T06:25:28.023Z,1814
2017-09-03T06:30:33.427Z,1999
2017-09-03T06:35:38.162Z,2245
2017-09-03T06:40:43.246Z,2462
2017-09-03T06:45:49.004Z,2759
2017-09-03T06:50:53.739Z,3091
2017-09-03T06:55:58.475Z,3421
2017-09-03T07:01:03.883Z,3799
2017-09-03T07:06:08.955Z,4306
2017-09-03T07:11:13.693Z,4932
2017-09-03T07:16:19.129Z,5588
2017-09-03T07:21:24.885Z,6232
2017-09-03T07:26:30.170Z,6768
2017-09-03T07:31:35.582Z,7368
2017-09-03T07:36:40.334Z,7925
2017-09-03T07:41:45.101Z,8189
2017-09-03T07:46:50.768Z,8300
2017-09-03T07:51:55.182Z,8264
2017-09-03T07:57:00.935Z,8204
2017-09-03T08:02:06.211Z,8096
2017-09-03T08:07:11.290Z,11370
2017-09-03T08:12:16.703Z,50048
2017-09-03T08:17:22.121Z,28384
2017-09-03T08:22:26.875Z,33024
2017-09-03T08:27:32.300Z,47848
2017-09-03T08:32:37.726Z,38184
2017-09-03T08:37:42.824Z,37376
2017-09-03T08:42:47.247Z,42488
2017-09-03T08:47:52.680Z,58112
2017-09-03T08:52:57.446Z,43480
2017-09-03T08:58:03.236Z,18136
2017-09-03T09:03:08.668Z,7254
2017-09-03T09:08:14.437Z,53288
2017-09-03T09:13:19.865Z,52160
2017-09-03T09:18:24.960Z,51328
2017-09-03T09:23:29.737Z,55176
2017-09-03T09:28:34.830Z,65535
2017-09-03T09:33:39.949Z,4136
2017-09-03T09:38:45.352Z,57872
2017-09-03T09:43:50.445Z,61640
2017-09-03T09:48:55.889Z,62160
2017-09-03T09:54:00.991Z,65535
2017-09-03T09:59:05.764Z,3220
2017-09-03T10:04:11.192Z,2621
2017-09-03T10:09:16.958Z,2818
2017-09-03T10:14:21.719Z,2806
2017-09-03T10:19:27.148Z,2645
2017-09-03T10:24:31.903Z,2488
2017-09-03T10:29:37.665Z,2384
2017-09-03T10:34:42.758Z,2574
2017-09-03T10:39:47.167Z,2496
2017-09-03T10:44:51.582Z,2201
2017-09-03T10:49:56.997Z,2147
2017-09-03T10:55:02.413Z,2249
2017-09-03T11:00:07.829Z,2242
2017-09-03T11:05:13.590Z,2085
2017-09-03T11:10:19.011Z,2074
2017-09-03T11:15:24.761Z,2072
2017-09-03T11:20:30.504Z,2100
2017-09-03T11:25:36.253Z,2117
2017-09-03T11:30:41.658Z,2099
2017-09-03T11:35:47.404Z,1839
2017-09-03T11:40:52.852Z,1803
2017-09-03T11:45:58.799Z,1787
2017-09-03T11:51:04.198Z,1702
2017-09-03T11:56:09.610Z,1656
2017-09-03T12:01:15.019Z,1675
2017-09-03T12:06:20.423Z,1647
2017-09-03T12:11:25.496Z,1400
2017-09-03T12:16:30.901Z,1641
2017-09-03T12:21:35.974Z,974
2017-09-03T12:26:41.043Z,1007
2017-09-03T12:31:46.450Z,852
2017-09-03T12:36:51.856Z,797
2017-09-03T12:41:56.926Z,1303
2017-09-03T12:47:02.000Z,1405
2017-09-03T12:52:06.739Z,1011
2017-09-03T12:57:12.145Z,1182
2017-09-03T13:02:16.880Z,1527
2017-09-03T13:07:21.955Z,1153
2017-09-03T13:12:28.034Z,968
2017-09-03T13:17:33.773Z,1112
2017-09-03T13:22:39.182Z,1009
2017-09-03T13:27:44.585Z,1362
2017-09-03T13:32:49.993Z,1403
2017-09-03T13:37:55.061Z,1186
2017-09-03T13:42:59.461Z,628
2017-09-03T13:48:04.858Z,597
2017-09-03T13:53:09.932Z,693
2017-09-03T13:58:14.330Z,754
2017-09-03T14:03:19.738Z,651
2017-09-03T14:08:25.520Z,583
2017-09-03T14:13:29.922Z,489
2017-09-03T14:18:34.983Z,454
2017-09-03T14:23:39.378Z,535
2017-09-03T14:28:44.446Z,603
2017-09-03T14:33:49.850Z,670
2017-09-03T14:38:54.249Z,787
2017-09-03T14:43:59.313Z,646
2017-09-03T14:49:05.060Z,624
2017-09-03T14:54:10.800Z,591
2017-09-03T14:59:16.209Z,538
2017-09-03T15:04:20.947Z,470
2017-09-03T15:09:26.402Z,394
2017-09-03T15:14:31.145Z,398
2017-09-03T15:19:36.554Z,348
2017-09-03T15:24:42.623Z,353
2017-09-03T15:29:48.027Z,324
2017-09-03T15:34:53.092Z,372
2017-09-03T15:39:58.160Z,313
2017-09-03T15:45:04.243Z,313
2017-09-03T15:50:08.976Z,290
2017-09-03T15:55:14.081Z,280
2017-09-03T16:00:19.173Z,260
2017-09-03T16:05:24.572Z,298
2017-09-03T16:10:29.646Z,357
2017-09-03T16:15:34.723Z,344
2017-09-03T16:20:40.458Z,330
2017-09-03T16:25:45.867Z,317
2017-09-03T16:30:50.266Z,321
2017-09-03T16:35:55.341Z,285
2017-09-03T16:41:00.083Z,272
2017-09-03T16:46:05.145Z,238
2017-09-03T16:51:10.553Z,211
2017-09-03T16:56:15.962Z,199
2017-09-03T17:01:21.368Z,182
2017-09-03T17:06:27.440Z,175
2017-09-03T17:11:32.848Z,150
2017-09-03T17:16:37.583Z,141
2017-09-03T17:21:42.988Z,122
2017-09-03T17:26:48.052Z,108
2017-09-03T17:31:53.789Z,97
2017-09-03T17:36:58.858Z,80
2017-09-03T17:42:03.934Z,62
2017-09-03T17:47:09.677Z,48
2017-09-03T17:52:15.076Z,36
2017-09-03T17:57:19.482Z,29
2017-09-03T18:02:24.554Z,21
2017-09-03T18:07:29.623Z,14
2017-09-03T18:12:34.361Z,9
2017-09-03T18:17:40.103Z,5
2017-09-03T18:22:45.506Z,2
2017-09-03T18:27:51.241Z,1
2017-09-03T18:32:56.305Z,1
2017-09-03T18:38:01.731Z,0
2017-09-03T18:43:06.482Z,0
2017-09-03T18:48:11.223Z,0
2017-09-03T18:53:15.948Z,0
2017-09-03T18:58:21.353Z,0
2017-09-03T19:03:26.756Z,0
2017-09-03T19:08:31.820Z,0
2017-09-03T19:13:36.895Z,3
2017-09-03T19:18:42.318Z,0
2017-09-03T19:23:47.049Z,0
2017-09-03T19:28:52.456Z,0
2017-09-03T19:33:57.865Z,1
2017-09-03T19:39:02.943Z,0
2017-09-03T19:44:08.336Z,0
2017-09-03T19:49:13.070Z,0
2017-09-03T19:54:18.135Z,0
2017-09-03T19:59:23.204Z,0
2017-09-03T20:04:28.266Z,0
2017-09-03T20:09:34.001Z,0
2017-09-03T20:14:39.415Z,0
2017-09-03T20:19:44.820Z,0
2017-09-03T20:24:50.221Z,0
2017-09-03T20:29:54.953Z,0
2017-09-03T20:35:00.693Z,0
2017-09-03T20:40:06.773Z,0
2017-09-03T20:45:11.506Z,0
2017-09-03T20:50:15.569Z,0
2017-09-03T20:55:20.636Z,0
2017-09-03T21:00:26.368Z,0
2017-09-03T21:05:32.107Z,0
2017-09-03T21:10:37.506Z,0
2017-09-03T21:15:42.243Z,0
2017-09-03T21:20:47.643Z,0
2017-09-03T21:25:52.371Z,0
2017-09-03T21:30:58.107Z,0
2017-09-03T21:36:02.514Z,0
2017-09-03T21:41:08.247Z,0
2017-09-03T21:46:13.989Z,0
2017-09-03T21:51:19.389Z,0
2017-09-03T21:56:24.459Z,0
2017-09-03T22:01:30.195Z,0
2017-09-03T22:06:35.262Z,0
2017-09-03T22:11:40.327Z,0
2017-09-03T22:16:45.729Z,0
2017-09-03T22:21:50.462Z,0
2017-09-03T22:26:56.537Z,0
2017-09-03T22:32:01.265Z,0
2017-09-03T22:37:06.673Z,0
2017-09-03T22:42:11.401Z,0
2017-09-03T22:47:16.465Z,0
2017-09-03T22:52:21.544Z,0
2017-09-03T22:57:26.945Z,0
2017-09-03T23:02:31.672Z,0
2017-09-03T23:07:37.078Z,0
2017-09-03T23:12:41.807Z,0
2017-09-03T23:17:46.540Z,0
2017-09-03T23:22:51.267Z,0
2017-09-03T23:27:55.662Z,0
2017-09-03T23:33:00.729Z,0
2017-09-03T23:38:05.461Z,0
2017-09-03T23:43:10.532Z,0
2017-09-03T23:48:15.598Z,0
2017-09-03T23:53:20.999Z,0
2017-09-03T23:58:26.068Z,0
